createdAt,value
2022-11-28T00:00:55.551Z,2.13
2022-11-28T00:04:02.329Z,1.84
2022-11-28T00:07:09.313Z,2.12
2022-11-28T00:10:17.515Z,2.40
2022-11-28T00:13:23.782Z,2.55
2022-11-28T00:16:30.258Z,2.21
2022-11-28T00:19:37.868Z,2.17
2022-11-28T00:22:44.397Z,1.72
2022-11-28T00:25:59.771Z,2.46
2022-11-28T00:29:06.865Z,2.16
2022-11-28T00:32:13.055Z,1.98
2022-11-28T00:35:19.576Z,2.45
2022-11-28T00:38:25.754Z,2.25
2022-11-28T00:41:35.432Z,1.74
2022-11-28T00:44:41.943Z,1.61
2022-11-28T00:47:49.279Z,2.03
2022-11-28T00:50:55.724Z,1.93
2022-11-28T00:54:04.558Z,2.31
2022-11-28T00:57:12.356Z,2.48
2022-11-28T01:00:19.500Z,2.03
2022-11-28T01:03:25.685Z,2.23
2022-11-28T01:06:34.323Z,1.83
2022-11-28T01:09:40.932Z,1.70
2022-11-28T01:12:48.693Z,1.64
2022-11-28T01:15:55.395Z,1.73
2022-11-28T01:19:01.882Z,2.26
2022-11-28T01:22:08.204Z,2.16
2022-11-28T01:25:14.607Z,1.76
2022-11-28T01:28:22.405Z,2.02
2022-11-28T01:31:44.023Z,2.24
2022-11-28T01:34:50.755Z,2.23
2022-11-28T01:37:57.135Z,2.24
2022-11-28T01:41:03.825Z,1.99
2022-11-28T01:44:57.751Z,2.15
2022-11-28T01:48:05.878Z,1.87
2022-11-28T01:51:12.258Z,2.26
2022-11-28T01:54:21.854Z,2.25
2022-11-28T01:57:29.518Z,1.92
2022-11-28T02:00:35.826Z,1.87
2022-11-28T02:03:46.327Z,1.65
2022-11-28T02:06:52.817Z,2.24
2022-11-28T02:09:59.263Z,2.33
2022-11-28T02:13:21.029Z,2.29
2022-11-28T02:16:47.393Z,2.40
2022-11-28T02:20:46.463Z,2.49
2022-11-28T02:24:33.089Z,2.38
2022-11-28T02:28:20.033Z,2.19
2022-11-28T02:31:44.443Z,1.82
2022-11-28T02:34:59.204Z,2.26
2022-11-28T02:38:14.309Z,2.37
2022-11-28T02:41:32.067Z,2.41
2022-11-28T02:44:48.903Z,1.71
2022-11-28T02:48:03.058Z,1.97
2022-11-28T02:51:14.675Z,2.20
2022-11-28T02:54:23.379Z,2.17
2022-11-28T02:57:47.260Z,2.20
2022-11-28T03:00:54.266Z,2.18
2022-11-28T03:04:14.045Z,1.91
2022-11-28T03:07:37.103Z,1.91
2022-11-28T03:10:52.021Z,1.98
2022-11-28T03:14:05.363Z,2.04
2022-11-28T03:17:20.074Z,2.11
2022-11-28T03:20:36.557Z,1.98
2022-11-28T03:23:50.087Z,1.91
2022-11-28T03:27:03.225Z,1.56
2022-11-28T03:30:17.004Z,1.88
2022-11-28T03:33:26.945Z,1.85
2022-11-28T03:36:36.790Z,1.92
2022-11-28T03:39:50.056Z,1.57
2022-11-28T03:43:02.800Z,1.80
2022-11-28T03:46:14.787Z,1.88
2022-11-28T03:49:25.979Z,1.61
2022-11-28T03:52:36.187Z,1.68
2022-11-28T03:55:49.831Z,2.05
2022-11-28T03:59:01.733Z,2.04
2022-11-28T04:02:17.777Z,1.84
2022-11-28T04:05:29.388Z,1.78
2022-11-28T04:08:40.922Z,1.95
2022-11-28T04:11:53.492Z,1.84
2022-11-28T04:15:05.331Z,1.63
2022-11-28T04:18:21.032Z,1.74
2022-11-28T04:21:32.381Z,1.83
2022-11-28T04:24:43.053Z,1.94
2022-11-28T04:27:55.534Z,2.15
2022-11-28T04:31:05.818Z,2.14
2022-11-28T04:34:16.065Z,2.17
2022-11-28T04:37:24.681Z,2.15
2022-11-28T04:40:34.397Z,1.90
2022-11-28T04:43:45.142Z,1.74
2022-11-28T04:46:54.602Z,1.56
2022-11-28T04:50:00.902Z,1.61
2022-11-28T04:53:11.622Z,1.82
2022-11-28T04:56:23.039Z,1.82
2022-11-28T04:59:33.065Z,1.81
2022-11-28T05:02:41.924Z,2.02
2022-11-28T05:05:50.489Z,1.62
2022-11-28T05:08:57.465Z,1.89
2022-11-28T05:12:04.839Z,2.12
2022-11-28T05:15:27.484Z,2.10
2022-11-28T05:18:33.673Z,2.20
2022-11-28T05:21:40.278Z,1.62
2022-11-28T05:24:46.707Z,1.78
2022-11-28T05:27:53.219Z,1.63
2022-11-28T05:31:02.003Z,2.01
2022-11-28T05:34:08.308Z,1.75
2022-11-28T05:37:14.769Z,1.91
2022-11-28T05:40:21.133Z,1.68
2022-11-28T05:43:27.188Z,1.81
2022-11-28T05:46:34.660Z,1.67
2022-11-28T05:49:40.901Z,1.95
2022-11-28T05:52:47.344Z,2.07
2022-11-28T05:55:53.873Z,1.52
2022-11-28T05:59:00.430Z,1.55
2022-11-28T06:02:09.066Z,1.74
2022-11-28T06:05:40.338Z,2.03
2022-11-28T06:08:42.102Z,1.61
2022-11-28T06:11:48.438Z,1.77
2022-11-28T06:14:54.664Z,2.06
2022-11-28T06:18:02.655Z,2.14
2022-11-28T06:21:11.116Z,1.95
2022-11-28T06:24:17.730Z,2.14
2022-11-28T06:27:23.832Z,2.05
2022-11-28T06:30:30.286Z,2.34
2022-11-28T06:33:37.961Z,2.33
2022-11-28T06:36:44.752Z,2.18
2022-11-28T06:39:51.669Z,2.43
2022-11-28T06:42:58.229Z,2.35
2022-11-28T06:46:05.069Z,2.01
2022-11-28T06:49:13.940Z,1.98
2022-11-28T06:52:20.256Z,1.91
2022-11-28T06:55:26.437Z,1.90
2022-11-28T06:58:32.685Z,2.13
2022-11-28T07:01:38.805Z,2.08
2022-11-28T07:04:46.646Z,1.97
2022-11-28T07:07:54.496Z,2.39
2022-11-28T07:11:09.633Z,2.32
2022-11-28T07:14:16.021Z,2.46
2022-11-28T07:17:22.079Z,2.41
2022-11-28T07:20:29.776Z,2.63
2022-11-28T07:23:36.423Z,2.79
2022-11-28T07:26:42.998Z,3.01
2022-11-28T07:29:49.709Z,3.24
2022-11-28T07:32:55.809Z,3.13
2022-11-28T07:36:05.363Z,2.86
2022-11-28T07:39:17.701Z,3.31
2022-11-28T07:42:24.075Z,2.92
2022-11-28T07:45:47.497Z,3.11
2022-11-28T07:48:57.020Z,3.47
2022-11-28T07:52:04.773Z,3.59
2022-11-28T07:55:11.267Z,3.41
2022-11-28T07:58:17.229Z,3.51
2022-11-28T08:01:25.949Z,3.54
2022-11-28T08:04:32.166Z,3.45
2022-11-28T08:07:40.328Z,2.99
2022-11-28T08:10:47.200Z,3.46
2022-11-28T08:13:56.511Z,3.30
2022-11-28T08:17:04.683Z,3.30
2022-11-28T08:20:12.059Z,3.24
2022-11-28T08:23:19.640Z,3.09
2022-11-28T08:26:30.534Z,3.44
2022-11-28T08:29:37.100Z,3.64
2022-11-28T08:32:43.333Z,3.76
2022-11-28T08:35:49.415Z,3.78
2022-11-28T08:39:26.571Z,3.74
2022-11-28T08:42:32.725Z,3.80
2022-11-28T08:45:39.718Z,3.62
2022-11-28T08:48:46.504Z,3.51
2022-11-28T08:51:53.516Z,3.47
2022-11-28T08:55:01.117Z,3.63
2022-11-28T08:58:21.158Z,3.80
2022-11-28T09:01:28.363Z,3.60
2022-11-28T09:04:34.774Z,4.04
2022-11-28T09:07:53.535Z,4.38
2022-11-28T09:11:01.082Z,3.98
2022-11-28T09:14:07.869Z,4.03
2022-11-28T09:17:15.822Z,4.22
2022-11-28T09:20:22.241Z,4.14
2022-11-28T09:23:29.318Z,4.11
2022-11-28T09:26:36.976Z,3.85
2022-11-28T09:29:43.376Z,3.74
2022-11-28T09:32:51.075Z,4.23
2022-11-28T09:35:58.407Z,3.84
2022-11-28T09:39:18.523Z,4.47
2022-11-28T09:42:31.945Z,4.39
2022-11-28T09:45:38.466Z,4.06
2022-11-28T09:48:49.511Z,4.31
2022-11-28T09:52:00.602Z,4.75
2022-11-28T09:55:17.371Z,4.51
2022-11-28T09:58:30.570Z,4.27
2022-11-28T10:01:43.915Z,4.28
2022-11-28T10:05:00.068Z,4.27
2022-11-28T10:08:17.905Z,4.38
2022-11-28T10:11:36.554Z,4.15
2022-11-28T10:15:27.808Z,3.85
2022-11-28T10:18:41.571Z,4.19
2022-11-28T10:21:56.444Z,4.33
2022-11-28T10:25:13.246Z,4.26
2022-11-28T10:28:23.924Z,4.43
2022-11-28T10:31:34.668Z,4.41
2022-11-28T10:34:46.439Z,4.49
2022-11-28T10:37:54.042Z,4.02
2022-11-28T10:41:07.422Z,4.15
2022-11-28T10:44:21.678Z,3.96
2022-11-28T10:47:51.572Z,3.77
2022-11-28T10:51:06.263Z,4.20
2022-11-28T10:54:27.052Z,4.26
2022-11-28T10:57:41.109Z,4.06
2022-11-28T11:00:49.761Z,4.26
2022-11-28T11:03:55.938Z,4.38
2022-11-28T11:07:20.996Z,3.90
2022-11-28T11:10:48.871Z,4.01
2022-11-28T11:14:06.227Z,4.06
2022-11-28T11:17:29.019Z,4.09
2022-11-28T11:20:40.049Z,4.11
2022-11-28T11:23:48.667Z,4.06
2022-11-28T11:26:55.516Z,4.14
2022-11-28T11:30:01.623Z,4.12
2022-11-28T11:33:15.198Z,4.03
2022-11-28T11:36:28.169Z,4.11
2022-11-28T11:39:47.208Z,4.01
2022-11-28T11:42:56.627Z,3.96
2022-11-28T11:46:08.569Z,4.08
2022-11-28T11:49:29.806Z,3.94
2022-11-28T11:52:35.916Z,4.17
2022-11-28T11:55:50.319Z,4.27
2022-11-28T11:58:58.849Z,4.28
2022-11-28T12:02:21.304Z,4.49
2022-11-28T12:05:46.597Z,4.55
2022-11-28T12:09:09.500Z,4.22
2022-11-28T12:12:22.975Z,4.07
2022-11-28T12:15:56.032Z,4.09
2022-11-28T12:19:14.752Z,4.06
2022-11-28T12:22:30.131Z,4.18
2022-11-28T12:25:45.635Z,4.14
2022-11-28T12:29:09.548Z,4.28
2022-11-28T12:32:30.164Z,4.13
2022-11-28T12:35:41.155Z,3.94
2022-11-28T12:39:15.570Z,4.37
2022-11-28T12:42:34.404Z,4.39
2022-11-28T12:45:52.670Z,4.25
2022-11-28T12:49:14.402Z,4.26
2022-11-28T12:52:32.945Z,4.46
2022-11-28T12:55:49.726Z,4.31
2022-11-28T12:59:03.474Z,4.53
2022-11-28T13:02:26.567Z,4.41
2022-11-28T13:05:43.514Z,4.58
2022-11-28T13:09:02.819Z,4.32
2022-11-28T13:12:35.882Z,4.46
2022-11-28T13:15:54.756Z,4.09
2022-11-28T13:19:09.577Z,4.47
2022-11-28T13:22:33.507Z,4.38
2022-11-28T13:25:46.640Z,4.16
2022-11-28T13:29:03.258Z,4.35
2022-11-28T13:32:16.774Z,4.22
2022-11-28T13:35:25.539Z,4.31
2022-11-28T13:39:13.082Z,4.50
2022-11-28T13:43:02.493Z,4.40
2022-11-28T13:46:03.070Z,4.28
2022-11-28T13:49:25.304Z,4.11
2022-11-28T13:52:43.823Z,4.17
2022-11-28T13:55:50.934Z,4.04
2022-11-28T13:59:00.907Z,4.04
2022-11-28T14:02:23.740Z,4.30
2022-11-28T14:05:35.054Z,4.28
2022-11-28T14:08:45.170Z,4.25
2022-11-28T14:12:05.447Z,4.52
2022-11-28T14:15:25.587Z,4.28
2022-11-28T14:18:56.629Z,4.31
2022-11-28T14:22:32.437Z,4.00
2022-11-28T14:25:45.139Z,4.04
2022-11-28T14:28:51.987Z,4.01
2022-11-28T14:35:57.025Z,3.80
2022-11-28T14:39:31.219Z,4.02
2022-11-28T14:46:29.291Z,4.16
2022-11-28T14:49:35.968Z,4.11
2022-11-28T14:52:43.472Z,3.89
2022-11-28T14:55:49.768Z,3.89
2022-11-28T14:59:04.663Z,3.94
2022-11-28T15:02:36.417Z,4.01
2022-11-28T15:05:46.564Z,3.88
2022-11-28T15:09:04.296Z,3.92
2022-11-28T15:12:18.999Z,3.91
2022-11-28T15:15:26.999Z,3.81
2022-11-28T15:18:34.579Z,4.00
2022-11-28T15:21:59.943Z,3.72
2022-11-28T15:25:18.948Z,3.79
2022-11-28T15:28:28.380Z,3.81
2022-11-28T15:31:36.357Z,3.64
2022-11-28T15:34:42.990Z,3.39
2022-11-28T15:37:51.946Z,3.63
2022-11-28T15:41:00.359Z,3.84
2022-11-28T15:44:06.785Z,3.65
2022-11-28T15:47:20.794Z,3.76
2022-11-28T15:50:29.315Z,3.54
2022-11-28T15:53:41.149Z,3.67
2022-11-28T15:56:57.725Z,3.75
2022-11-28T16:00:05.408Z,3.59
2022-11-28T16:03:17.942Z,3.69
2022-11-28T16:06:40.006Z,3.62
2022-11-28T16:09:59.755Z,3.61
2022-11-28T16:13:15.044Z,3.36
2022-11-28T16:16:24.608Z,3.55
2022-11-28T16:19:35.584Z,3.74
2022-11-28T16:22:41.972Z,3.51
2022-11-28T16:26:00.245Z,3.55
2022-11-28T16:29:15.563Z,3.53
2022-11-28T16:32:26.097Z,3.50
2022-11-28T16:35:39.029Z,3.48
2022-11-28T16:38:47.326Z,3.63
2022-11-28T16:42:05.918Z,3.56
2022-11-28T16:45:18.658Z,3.53
2022-11-28T16:48:27.250Z,3.43
2022-11-28T16:51:40.217Z,3.53
2022-11-28T16:55:00.370Z,3.52
2022-11-28T16:58:13.231Z,3.56
2022-11-28T17:01:21.613Z,3.48
2022-11-28T17:04:29.821Z,3.42
2022-11-28T17:07:50.471Z,3.51
2022-11-28T17:10:57.045Z,3.47
2022-11-28T17:14:10.089Z,3.31
2022-11-28T17:17:21.428Z,3.50
2022-11-28T17:20:27.807Z,3.45
2022-11-28T17:23:35.608Z,3.41
2022-11-28T17:26:42.000Z,3.20
2022-11-28T17:29:48.484Z,2.85
2022-11-28T17:32:54.742Z,3.09
2022-11-28T17:36:03.116Z,3.13
2022-11-28T17:39:11.391Z,3.11
2022-11-28T17:42:17.739Z,3.18
2022-11-28T17:45:24.290Z,3.12
2022-11-28T17:48:30.697Z,2.98
2022-11-28T17:51:37.228Z,3.17
2022-11-28T17:54:44.815Z,3.27
2022-11-28T17:57:51.262Z,3.25
2022-11-28T18:01:00.826Z,3.35
2022-11-28T18:04:07.677Z,3.37
2022-11-28T18:07:14.192Z,3.24
2022-11-28T18:10:36.032Z,3.27
2022-11-28T18:13:42.672Z,3.35
2022-11-28T18:16:49.481Z,2.96
2022-11-28T18:19:57.642Z,3.07
2022-11-28T18:23:04.319Z,3.28
2022-11-28T18:26:14.484Z,3.24
2022-11-28T18:29:20.724Z,3.19
2022-11-28T18:32:27.161Z,3.11
2022-11-28T18:35:33.235Z,3.26
2022-11-28T18:38:39.497Z,3.23
2022-11-28T18:41:47.087Z,3.07
2022-11-28T18:44:53.666Z,3.22
2022-11-28T18:48:00.483Z,3.38
2022-11-28T18:51:12.266Z,3.27
2022-11-28T18:54:21.283Z,3.33
2022-11-28T18:57:32.769Z,3.36
2022-11-28T19:00:39.496Z,2.91
2022-11-28T19:03:50.005Z,2.91
2022-11-28T19:06:56.618Z,2.68
2022-11-28T19:10:02.816Z,2.86
2022-11-28T19:13:10.598Z,3.10
2022-11-28T19:16:31.942Z,3.04
2022-11-28T19:19:39.990Z,3.02
2022-11-28T19:22:46.433Z,3.14
2022-11-28T19:25:53.250Z,3.22
2022-11-28T19:29:01.526Z,3.06
2022-11-28T19:32:07.980Z,3.09
2022-11-28T19:35:14.577Z,2.95
2022-11-28T19:38:20.882Z,3.02
2022-11-28T19:41:27.252Z,2.91
2022-11-28T19:44:34.991Z,2.89
2022-11-28T19:47:42.439Z,3.04
2022-11-28T19:50:50.240Z,3.03
2022-11-28T19:54:02.696Z,2.97
2022-11-28T19:57:11.461Z,2.57
2022-11-28T20:00:20.104Z,2.96
2022-11-28T20:03:26.306Z,2.72
2022-11-28T20:06:33.400Z,2.64
2022-11-28T20:09:39.891Z,2.71
2022-11-28T20:12:46.118Z,2.96
2022-11-28T20:15:53.883Z,2.97
2022-11-28T20:19:13.085Z,3.08
2022-11-28T20:22:33.313Z,2.94
2022-11-28T20:25:39.929Z,2.81
2022-11-28T20:28:46.924Z,2.73
2022-11-28T20:31:57.297Z,2.86
2022-11-28T20:35:04.998Z,2.92
2022-11-28T20:38:11.025Z,2.78
2022-11-28T20:41:19.287Z,2.82
2022-11-28T20:44:25.398Z,3.13
2022-11-28T20:47:35.153Z,3.16
2022-11-28T20:50:44.470Z,2.91
2022-11-28T20:53:50.705Z,2.87
2022-11-28T21:00:26.727Z,2.85
2022-11-28T21:03:49.320Z,3.07
2022-11-28T21:06:55.567Z,3.13
2022-11-28T21:10:03.847Z,3.02
2022-11-28T21:13:10.944Z,3.11
2022-11-28T21:16:20.103Z,3.06
2022-11-28T21:19:42.399Z,3.15
2022-11-28T21:22:49.051Z,3.03
2022-11-28T21:25:55.373Z,2.84
2022-11-28T21:29:05.887Z,3.13
2022-11-28T21:32:13.746Z,3.24
2022-11-28T21:35:21.775Z,3.09
2022-11-28T21:38:28.292Z,3.15
2022-11-28T21:41:34.748Z,3.18
2022-11-28T21:44:40.976Z,3.16
2022-11-28T21:47:47.502Z,2.91
2022-11-28T21:50:54.963Z,2.94
2022-11-28T21:54:13.513Z,3.25
2022-11-28T21:57:19.657Z,3.06
2022-11-28T22:00:52.227Z,3.18
2022-11-28T22:03:53.414Z,3.23
2022-11-28T22:07:01.157Z,3.28
2022-11-28T22:10:09.096Z,3.09
2022-11-28T22:13:15.271Z,3.11
2022-11-28T22:16:23.272Z,3.33
2022-11-28T22:19:29.702Z,3.24
2022-11-28T22:22:50.972Z,3.42
2022-11-28T22:25:57.419Z,3.28
2022-11-28T22:29:04.175Z,3.50
2022-11-28T22:32:10.417Z,3.39
2022-11-28T22:35:16.948Z,3.28
2022-11-28T22:38:24.899Z,3.08
2022-11-28T22:41:31.219Z,2.96
2022-11-28T22:44:37.868Z,2.83
2022-11-28T22:47:44.212Z,2.80
2022-11-28T22:51:03.762Z,2.95
2022-11-28T22:54:13.583Z,2.76
2022-11-28T22:57:20.187Z,2.81
2022-11-28T23:00:26.697Z,3.02
2022-11-28T23:03:33.056Z,3.13
2022-11-28T23:06:39.535Z,3.15
2022-11-28T23:09:47.095Z,2.80
2022-11-28T23:12:53.398Z,3.00
2022-11-28T23:16:10.413Z,2.92
2022-11-28T23:19:19.124Z,2.88
2022-11-28T23:22:25.372Z,2.85
2022-11-28T23:25:33.211Z,2.60
2022-11-28T23:28:39.963Z,3.04
2022-11-28T23:31:47.183Z,3.09
2022-11-28T23:35:03.977Z,2.88
2022-11-28T23:38:10.461Z,2.83
2022-11-28T23:41:18.307Z,3.06
2022-11-28T23:44:38.279Z,3.01
2022-11-28T23:47:44.200Z,3.18
2022-11-28T23:50:50.493Z,2.82
2022-11-28T23:53:56.478Z,2.67
2022-11-28T23:57:04.205Z,2.95
